sensor_id;sensor_type;location;lat;lon;timestamp;P1;durP1;ratioP1;P2;durP2;ratioP2
78686;SDS011;68002;52.310;6.990;2023-07-13T00:01:31;7.13;;;1.30;;
78686;SDS011;68002;52.310;6.990;2023-07-13T00:03:57;4.40;;;1.02;;
78686;SDS011;68002;52.310;6.990;2023-07-13T00:06:23;8.05;;;1.42;;
78686;SDS011;68002;52.310;6.990;2023-07-13T00:08:48;6.40;;;1.30;;
78686;SDS011;68002;52.310;6.990;2023-07-13T00:11:13;5.00;;;1.83;;
78686;SDS011;68002;52.310;6.990;2023-07-13T00:13:39;5.13;;;1.00;;
78686;SDS011;68002;52.310;6.990;2023-07-13T00:16:06;4.55;;;1.38;;
78686;SDS011;68002;52.310;6.990;2023-07-13T00:18:32;4.28;;;0.85;;
78686;SDS011;68002;52.310;6.990;2023-07-13T00:20:57;3.63;;;1.33;;
78686;SDS011;68002;52.310;6.990;2023-07-13T00:23:22;6.68;;;2.45;;
78686;SDS011;68002;52.310;6.990;2023-07-13T00:25:48;6.40;;;1.33;;
78686;SDS011;68002;52.310;6.990;2023-07-13T00:28:13;4.88;;;1.48;;
78686;SDS011;68002;52.310;6.990;2023-07-13T00:30:38;4.23;;;1.40;;
78686;SDS011;68002;52.310;6.990;2023-07-13T00:33:03;5.33;;;1.80;;
78686;SDS011;68002;52.310;6.990;2023-07-13T00:35:30;7.70;;;1.73;;
78686;SDS011;68002;52.310;6.990;2023-07-13T00:37:56;5.05;;;1.33;;
78686;SDS011;68002;52.310;6.990;2023-07-13T00:40:21;4.63;;;1.80;;
78686;SDS011;68002;52.310;6.990;2023-07-13T00:42:46;5.60;;;1.00;;
78686;SDS011;68002;52.310;6.990;2023-07-13T00:47:37;2.80;;;1.97;;
78686;SDS011;68002;52.310;6.990;2023-07-13T00:50:03;3.67;;;1.67;;
78686;SDS011;68002;52.310;6.990;2023-07-13T00:52:33;3.28;;;1.15;;
78686;SDS011;68002;52.310;6.990;2023-07-13T00:55:01;4.53;;;1.05;;
78686;SDS011;68002;52.310;6.990;2023-07-13T00:57:27;3.40;;;1.38;;
78686;SDS011;68002;52.310;6.990;2023-07-13T00:59:54;3.77;;;1.10;;
78686;SDS011;68002;52.310;6.990;2023-07-13T01:02:23;2.35;;;0.90;;
78686;SDS011;68002;52.310;6.990;2023-07-13T01:04:49;4.65;;;1.92;;
78686;SDS011;68002;52.310;6.990;2023-07-13T01:07:15;4.13;;;1.33;;
78686;SDS011;68002;52.310;6.990;2023-07-13T01:09:40;3.90;;;1.40;;
78686;SDS011;68002;52.310;6.990;2023-07-13T01:12:06;2.90;;;1.17;;
78686;SDS011;68002;52.310;6.990;2023-07-13T01:14:32;4.82;;;1.15;;
78686;SDS011;68002;52.310;6.990;2023-07-13T01:16:57;3.08;;;1.17;;
78686;SDS011;68002;52.310;6.990;2023-07-13T01:21:57;5.00;;;1.33;;
78686;SDS011;68002;52.310;6.990;2023-07-13T01:24:22;5.67;;;1.80;;
78686;SDS011;68002;52.310;6.990;2023-07-13T01:26:48;5.60;;;1.50;;
78686;SDS011;68002;52.310;6.990;2023-07-13T01:29:13;5.90;;;1.50;;
78686;SDS011;68002;52.310;6.990;2023-07-13T01:31:38;5.13;;;1.67;;
78686;SDS011;68002;52.310;6.990;2023-07-13T01:34:04;4.67;;;1.63;;
78686;SDS011;68002;52.310;6.990;2023-07-13T01:36:29;4.77;;;1.97;;
78686;SDS011;68002;52.310;6.990;2023-07-13T01:38:54;4.97;;;1.77;;
78686;SDS011;68002;52.310;6.990;2023-07-13T01:41:19;5.50;;;1.17;;
78686;SDS011;68002;52.310;6.990;2023-07-13T01:43:45;4.20;;;1.53;;
78686;SDS011;68002;52.310;6.990;2023-07-13T01:46:10;5.47;;;2.03;;
78686;SDS011;68002;52.310;6.990;2023-07-13T01:48:35;4.83;;;1.67;;
78686;SDS011;68002;52.310;6.990;2023-07-13T01:51:01;4.40;;;1.43;;
78686;SDS011;68002;52.310;6.990;2023-07-13T01:53:26;4.30;;;2.00;;
78686;SDS011;68002;52.310;6.990;2023-07-13T01:55:51;3.87;;;1.57;;
78686;SDS011;68002;52.310;6.990;2023-07-13T01:58:16;4.57;;;1.40;;
78686;SDS011;68002;52.310;6.990;2023-07-13T02:00:42;5.67;;;1.47;;
78686;SDS011;68002;52.310;6.990;2023-07-13T02:03:07;6.10;;;1.73;;
78686;SDS011;68002;52.310;6.990;2023-07-13T02:05:32;4.90;;;1.67;;
78686;SDS011;68002;52.310;6.990;2023-07-13T02:07:57;3.47;;;1.60;;
78686;SDS011;68002;52.310;6.990;2023-07-13T02:10:23;8.40;;;2.87;;
78686;SDS011;68002;52.310;6.990;2023-07-13T02:12:48;6.47;;;1.90;;
78686;SDS011;68002;52.310;6.990;2023-07-13T02:15:14;4.30;;;1.73;;
78686;SDS011;68002;52.310;6.990;2023-07-13T02:17:39;5.80;;;1.77;;
78686;SDS011;68002;52.310;6.990;2023-07-13T02:20:05;5.97;;;1.67;;
78686;SDS011;68002;52.310;6.990;2023-07-13T02:22:30;3.72;;;1.73;;
78686;SDS011;68002;52.310;6.990;2023-07-13T02:24:56;4.97;;;2.10;;
78686;SDS011;68002;52.310;6.990;2023-07-13T02:27:21;5.93;;;1.47;;
78686;SDS011;68002;52.310;6.990;2023-07-13T02:29:46;7.90;;;1.92;;
78686;SDS011;68002;52.310;6.990;2023-07-13T02:32:12;5.90;;;1.43;;
78686;SDS011;68002;52.310;6.990;2023-07-13T02:34:37;4.35;;;2.55;;
78686;SDS011;68002;52.310;6.990;2023-07-13T02:37:03;3.30;;;1.42;;
78686;SDS011;68002;52.310;6.990;2023-07-13T02:39:29;4.82;;;1.33;;
78686;SDS011;68002;52.310;6.990;2023-07-13T02:41:54;4.20;;;1.57;;
78686;SDS011;68002;52.310;6.990;2023-07-13T02:44:19;4.63;;;1.60;;
78686;SDS011;68002;52.310;6.990;2023-07-13T02:46:45;4.47;;;1.70;;
78686;SDS011;68002;52.310;6.990;2023-07-13T02:49:10;4.37;;;2.00;;
78686;SDS011;68002;52.310;6.990;2023-07-13T02:51:35;5.37;;;1.27;;
78686;SDS011;68002;52.310;6.990;2023-07-13T02:54:01;8.23;;;2.03;;
78686;SDS011;68002;52.310;6.990;2023-07-13T02:56:28;8.55;;;2.20;;
78686;SDS011;68002;52.310;6.990;2023-07-13T02:58:54;3.97;;;2.15;;
78686;SDS011;68002;52.310;6.990;2023-07-13T03:01:19;4.73;;;1.77;;
78686;SDS011;68002;52.310;6.990;2023-07-13T03:03:45;5.60;;;1.77;;
78686;SDS011;68002;52.310;6.990;2023-07-13T03:06:10;7.25;;;1.17;;
78686;SDS011;68002;52.310;6.990;2023-07-13T03:08:35;5.77;;;1.63;;
78686;SDS011;68002;52.310;6.990;2023-07-13T03:11:01;4.63;;;1.57;;
78686;SDS011;68002;52.310;6.990;2023-07-13T03:13:39;5.07;;;2.30;;
78686;SDS011;68002;52.310;6.990;2023-07-13T03:16:05;3.65;;;1.58;;
78686;SDS011;68002;52.310;6.990;2023-07-13T03:18:31;4.20;;;1.20;;
78686;SDS011;68002;52.310;6.990;2023-07-13T03:20:56;4.85;;;1.77;;
78686;SDS011;68002;52.310;6.990;2023-07-13T03:23:22;5.15;;;1.52;;
78686;SDS011;68002;52.310;6.990;2023-07-13T03:25:48;5.90;;;1.80;;
78686;SDS011;68002;52.310;6.990;2023-07-13T03:28:13;3.38;;;1.92;;
78686;SDS011;68002;52.310;6.990;2023-07-13T03:30:39;5.75;;;2.45;;
78686;SDS011;68002;52.310;6.990;2023-07-13T03:33:05;3.65;;;1.20;;
78686;SDS011;68002;52.310;6.990;2023-07-13T03:35:30;5.65;;;1.70;;
78686;SDS011;68002;52.310;6.990;2023-07-13T03:37:56;5.20;;;2.23;;
78686;SDS011;68002;52.310;6.990;2023-07-13T03:40:21;6.30;;;2.17;;
78686;SDS011;68002;52.310;6.990;2023-07-13T03:42:46;6.03;;;1.93;;
78686;SDS011;68002;52.310;6.990;2023-07-13T03:45:11;5.63;;;1.77;;
78686;SDS011;68002;52.310;6.990;2023-07-13T03:47:37;5.80;;;2.55;;
78686;SDS011;68002;52.310;6.990;2023-07-13T03:50:02;3.83;;;1.30;;
78686;SDS011;68002;52.310;6.990;2023-07-13T03:52:28;8.23;;;1.85;;
78686;SDS011;68002;52.310;6.990;2023-07-13T03:54:53;3.53;;;1.87;;
78686;SDS011;68002;52.310;6.990;2023-07-13T03:57:18;7.00;;;2.23;;
78686;SDS011;68002;52.310;6.990;2023-07-13T03:59:44;6.47;;;1.90;;
78686;SDS011;68002;52.310;6.990;2023-07-13T04:02:09;3.83;;;1.70;;
78686;SDS011;68002;52.310;6.990;2023-07-13T04:04:34;7.90;;;2.08;;
78686;SDS011;68002;52.310;6.990;2023-07-13T04:07:00;5.13;;;1.67;;
78686;SDS011;68002;52.310;6.990;2023-07-13T04:09:25;6.10;;;1.80;;
78686;SDS011;68002;52.310;6.990;2023-07-13T04:11:50;4.82;;;2.00;;
78686;SDS011;68002;52.310;6.990;2023-07-13T04:14:16;6.80;;;2.40;;
78686;SDS011;68002;52.310;6.990;2023-07-13T04:16:41;5.57;;;1.77;;
78686;SDS011;68002;52.310;6.990;2023-07-13T04:19:07;4.00;;;2.08;;
78686;SDS011;68002;52.310;6.990;2023-07-13T04:21:34;6.25;;;2.50;;
78686;SDS011;68002;52.310;6.990;2023-07-13T04:23:59;6.40;;;2.10;;
78686;SDS011;68002;52.310;6.990;2023-07-13T04:26:24;7.60;;;2.37;;
78686;SDS011;68002;52.310;6.990;2023-07-13T04:28:50;5.28;;;2.10;;
78686;SDS011;68002;52.310;6.990;2023-07-13T04:31:16;6.38;;;3.10;;
78686;SDS011;68002;52.310;6.990;2023-07-13T04:33:42;7.75;;;3.15;;
78686;SDS011;68002;52.310;6.990;2023-07-13T04:36:08;5.90;;;2.20;;
78686;SDS011;68002;52.310;6.990;2023-07-13T04:38:33;6.15;;;2.33;;
78686;SDS011;68002;52.310;6.990;2023-07-13T04:41:00;6.33;;;2.60;;
78686;SDS011;68002;52.310;6.990;2023-07-13T04:43:27;9.98;;;2.10;;
78686;SDS011;68002;52.310;6.990;2023-07-13T04:45:53;5.53;;;2.63;;
78686;SDS011;68002;52.310;6.990;2023-07-13T04:48:19;7.25;;;3.03;;
78686;SDS011;68002;52.310;6.990;2023-07-13T04:50:45;6.07;;;2.85;;
78686;SDS011;68002;52.310;6.990;2023-07-13T04:53:11;6.53;;;2.45;;
78686;SDS011;68002;52.310;6.990;2023-07-13T04:55:37;6.47;;;2.35;;
78686;SDS011;68002;52.310;6.990;2023-07-13T04:58:03;5.70;;;2.83;;
78686;SDS011;68002;52.310;6.990;2023-07-13T05:00:29;8.43;;;2.95;;
78686;SDS011;68002;52.310;6.990;2023-07-13T05:02:55;6.22;;;2.45;;
78686;SDS011;68002;52.310;6.990;2023-07-13T05:05:21;5.78;;;2.65;;
78686;SDS011;68002;52.310;6.990;2023-07-13T05:07:46;6.93;;;2.97;;
78686;SDS011;68002;52.310;6.990;2023-07-13T05:10:11;6.20;;;4.10;;
78686;SDS011;68002;52.310;6.990;2023-07-13T05:12:37;5.97;;;2.70;;
78686;SDS011;68002;52.310;6.990;2023-07-13T05:15:02;6.87;;;2.40;;
78686;SDS011;68002;52.310;6.990;2023-07-13T05:17:28;10.35;;;3.00;;
78686;SDS011;68002;52.310;6.990;2023-07-13T05:19:53;6.27;;;2.43;;
78686;SDS011;68002;52.310;6.990;2023-07-13T05:22:19;9.00;;;2.33;;
78686;SDS011;68002;52.310;6.990;2023-07-13T05:24:44;5.57;;;2.47;;
78686;SDS011;68002;52.310;6.990;2023-07-13T05:27:09;8.87;;;3.20;;
78686;SDS011;68002;52.310;6.990;2023-07-13T05:29:35;10.63;;;3.37;;
78686;SDS011;68002;52.310;6.990;2023-07-13T05:32:00;7.30;;;2.63;;
78686;SDS011;68002;52.310;6.990;2023-07-13T05:34:25;6.40;;;2.70;;
78686;SDS011;68002;52.310;6.990;2023-07-13T05:36:51;7.57;;;2.80;;
78686;SDS011;68002;52.310;6.990;2023-07-13T05:39:16;9.13;;;2.83;;
78686;SDS011;68002;52.310;6.990;2023-07-13T05:41:41;7.47;;;3.05;;
78686;SDS011;68002;52.310;6.990;2023-07-13T05:44:07;7.03;;;2.30;;
78686;SDS011;68002;52.310;6.990;2023-07-13T05:46:32;6.07;;;2.60;;
78686;SDS011;68002;52.310;6.990;2023-07-13T05:48:58;7.82;;;2.70;;
78686;SDS011;68002;52.310;6.990;2023-07-13T05:51:23;7.07;;;2.87;;
78686;SDS011;68002;52.310;6.990;2023-07-13T05:53:48;8.30;;;3.53;;
78686;SDS011;68002;52.310;6.990;2023-07-13T05:56:13;5.37;;;2.43;;
78686;SDS011;68002;52.310;6.990;2023-07-13T05:58:39;9.87;;;2.87;;
78686;SDS011;68002;52.310;6.990;2023-07-13T06:01:05;7.03;;;2.50;;
78686;SDS011;68002;52.310;6.990;2023-07-13T06:03:33;8.18;;;2.95;;
78686;SDS011;68002;52.310;6.990;2023-07-13T06:05:59;8.63;;;2.75;;
78686;SDS011;68002;52.310;6.990;2023-07-13T06:08:24;9.13;;;2.38;;
78686;SDS011;68002;52.310;6.990;2023-07-13T06:10:50;7.63;;;2.50;;
78686;SDS011;68002;52.310;6.990;2023-07-13T06:13:15;9.60;;;3.47;;
78686;SDS011;68002;52.310;6.990;2023-07-13T06:15:40;10.50;;;3.10;;
78686;SDS011;68002;52.310;6.990;2023-07-13T06:18:05;5.87;;;2.87;;
78686;SDS011;68002;52.310;6.990;2023-07-13T06:20:33;9.90;;;2.57;;
78686;SDS011;68002;52.310;6.990;2023-07-13T06:22:58;7.68;;;3.13;;
78686;SDS011;68002;52.310;6.990;2023-07-13T06:25:24;8.97;;;3.47;;
78686;SDS011;68002;52.310;6.990;2023-07-13T06:27:49;7.60;;;3.13;;
78686;SDS011;68002;52.310;6.990;2023-07-13T06:30:14;10.03;;;3.97;;
78686;SDS011;68002;52.310;6.990;2023-07-13T06:32:39;9.33;;;3.27;;
78686;SDS011;68002;52.310;6.990;2023-07-13T06:35:05;6.93;;;2.83;;
78686;SDS011;68002;52.310;6.990;2023-07-13T06:37:30;7.15;;;3.15;;
78686;SDS011;68002;52.310;6.990;2023-07-13T06:39:56;9.57;;;3.87;;
78686;SDS011;68002;52.310;6.990;2023-07-13T06:42:21;11.00;;;3.53;;
78686;SDS011;68002;52.310;6.990;2023-07-13T06:44:46;6.37;;;3.23;;
78686;SDS011;68002;52.310;6.990;2023-07-13T06:47:12;12.20;;;4.57;;
78686;SDS011;68002;52.310;6.990;2023-07-13T06:49:37;8.88;;;4.55;;
78686;SDS011;68002;52.310;6.990;2023-07-13T06:52:02;8.03;;;3.70;;
78686;SDS011;68002;52.310;6.990;2023-07-13T06:54:28;8.25;;;3.95;;
78686;SDS011;68002;52.310;6.990;2023-07-13T06:56:53;6.60;;;3.80;;
78686;SDS011;68002;52.310;6.990;2023-07-13T06:59:18;12.10;;;4.43;;
78686;SDS011;68002;52.310;6.990;2023-07-13T07:01:44;10.93;;;4.95;;
78686;SDS011;68002;52.310;6.990;2023-07-13T07:04:09;8.37;;;5.93;;
78686;SDS011;68002;52.310;6.990;2023-07-13T07:06:34;9.93;;;4.53;;
78686;SDS011;68002;52.310;6.990;2023-07-13T07:09:00;9.98;;;4.57;;
78686;SDS011;68002;52.310;6.990;2023-07-13T07:11:26;7.95;;;4.28;;
78686;SDS011;68002;52.310;6.990;2023-07-13T07:13:51;11.35;;;5.32;;
78686;SDS011;68002;52.310;6.990;2023-07-13T07:16:18;13.75;;;6.53;;
78686;SDS011;68002;52.310;6.990;2023-07-13T07:18:44;11.88;;;5.13;;
78686;SDS011;68002;52.310;6.990;2023-07-13T07:21:10;10.85;;;5.32;;
78686;SDS011;68002;52.310;6.990;2023-07-13T07:23:35;9.18;;;4.85;;
78686;SDS011;68002;52.310;6.990;2023-07-13T07:26:01;14.43;;;5.82;;
78686;SDS011;68002;52.310;6.990;2023-07-13T07:28:27;10.52;;;6.88;;
78686;SDS011;68002;52.310;6.990;2023-07-13T07:30:52;14.50;;;5.43;;
78686;SDS011;68002;52.310;6.990;2023-07-13T07:33:19;11.50;;;5.40;;
78686;SDS011;68002;52.310;6.990;2023-07-13T07:35:44;10.53;;;5.30;;
78686;SDS011;68002;52.310;6.990;2023-07-13T07:38:10;10.70;;;5.30;;
78686;SDS011;68002;52.310;6.990;2023-07-13T07:40:38;12.73;;;5.80;;
78686;SDS011;68002;52.310;6.990;2023-07-13T07:43:05;10.60;;;5.30;;
78686;SDS011;68002;52.310;6.990;2023-07-13T07:45:30;9.40;;;5.40;;
78686;SDS011;68002;52.310;6.990;2023-07-13T07:47:56;9.53;;;5.43;;
78686;SDS011;68002;52.310;6.990;2023-07-13T07:50:21;10.70;;;4.60;;
78686;SDS011;68002;52.310;6.990;2023-07-13T07:52:46;11.63;;;5.63;;
78686;SDS011;68002;52.310;6.990;2023-07-13T07:55:11;10.03;;;6.50;;
78686;SDS011;68002;52.310;6.990;2023-07-13T07:57:37;11.00;;;5.77;;
78686;SDS011;68002;52.310;6.990;2023-07-13T08:00:02;8.90;;;5.47;;
78686;SDS011;68002;52.310;6.990;2023-07-13T08:02:27;11.45;;;5.88;;
78686;SDS011;68002;52.310;6.990;2023-07-13T08:04:53;14.23;;;7.77;;
78686;SDS011;68002;52.310;6.990;2023-07-13T08:07:18;10.48;;;6.30;;
78686;SDS011;68002;52.310;6.990;2023-07-13T08:09:43;10.73;;;6.10;;
78686;SDS011;68002;52.310;6.990;2023-07-13T08:12:09;10.87;;;5.40;;
78686;SDS011;68002;52.310;6.990;2023-07-13T08:14:34;12.35;;;6.28;;
78686;SDS011;68002;52.310;6.990;2023-07-13T08:17:00;12.10;;;5.90;;
78686;SDS011;68002;52.310;6.990;2023-07-13T08:19:25;8.20;;;5.73;;
78686;SDS011;68002;52.310;6.990;2023-07-13T08:21:50;10.60;;;5.80;;
78686;SDS011;68002;52.310;6.990;2023-07-13T08:24:15;11.60;;;6.40;;
78686;SDS011;68002;52.310;6.990;2023-07-13T08:26:41;9.50;;;5.53;;
78686;SDS011;68002;52.310;6.990;2023-07-13T08:29:06;11.67;;;6.50;;
78686;SDS011;68002;52.310;6.990;2023-07-13T08:31:31;10.07;;;6.00;;
78686;SDS011;68002;52.310;6.990;2023-07-13T08:33:57;9.25;;;5.80;;
78686;SDS011;68002;52.310;6.990;2023-07-13T08:36:22;10.40;;;6.10;;
78686;SDS011;68002;52.310;6.990;2023-07-13T08:38:47;11.90;;;7.33;;
78686;SDS011;68002;52.310;6.990;2023-07-13T08:41:14;10.57;;;5.43;;
78686;SDS011;68002;52.310;6.990;2023-07-13T08:43:41;10.05;;;6.95;;
78686;SDS011;68002;52.310;6.990;2023-07-13T08:46:15;12.73;;;6.95;;
78686;SDS011;68002;52.310;6.990;2023-07-13T08:48:43;12.13;;;6.47;;
78686;SDS011;68002;52.310;6.990;2023-07-13T08:53:52;9.13;;;6.25;;
78686;SDS011;68002;52.310;6.990;2023-07-13T08:56:22;7.78;;;5.05;;
78686;SDS011;68002;52.310;6.990;2023-07-13T08:58:52;12.75;;;7.05;;
78686;SDS011;68002;52.310;6.990;2023-07-13T09:01:30;10.48;;;6.63;;
78686;SDS011;68002;52.310;6.990;2023-07-13T09:04:16;9.50;;;6.35;;
78686;SDS011;68002;52.310;6.990;2023-07-13T09:09:20;12.85;;;6.80;;
78686;SDS011;68002;52.310;6.990;2023-07-13T09:12:02;11.75;;;6.65;;
78686;SDS011;68002;52.310;6.990;2023-07-13T09:17:13;9.75;;;5.43;;
78686;SDS011;68002;52.310;6.990;2023-07-13T09:19:44;9.30;;;5.95;;
78686;SDS011;68002;52.310;6.990;2023-07-13T09:22:15;8.70;;;5.22;;
78686;SDS011;68002;52.310;6.990;2023-07-13T09:27:18;10.65;;;5.78;;
78686;SDS011;68002;52.310;6.990;2023-07-13T09:29:54;10.30;;;6.00;;
78686;SDS011;68002;52.310;6.990;2023-07-13T09:32:26;14.30;;;6.45;;
78686;SDS011;68002;52.310;6.990;2023-07-13T09:34:53;9.48;;;6.22;;
78686;SDS011;68002;52.310;6.990;2023-07-13T09:37:20;9.88;;;5.57;;
78686;SDS011;68002;52.310;6.990;2023-07-13T09:39:52;13.00;;;6.63;;
78686;SDS011;68002;52.310;6.990;2023-07-13T09:42:19;10.52;;;7.00;;
78686;SDS011;68002;52.310;6.990;2023-07-13T09:47:16;11.90;;;5.65;;
78686;SDS011;68002;52.310;6.990;2023-07-13T09:49:42;12.10;;;7.13;;
78686;SDS011;68002;52.310;6.990;2023-07-13T09:52:10;11.68;;;5.93;;
78686;SDS011;68002;52.310;6.990;2023-07-13T09:54:37;10.25;;;5.85;;
78686;SDS011;68002;52.310;6.990;2023-07-13T09:57:08;13.30;;;6.35;;
78686;SDS011;68002;52.310;6.990;2023-07-13T09:59:48;12.75;;;6.65;;
78686;SDS011;68002;52.310;6.990;2023-07-13T10:02:25;11.40;;;6.78;;
78686;SDS011;68002;52.310;6.990;2023-07-13T10:05:02;12.82;;;7.85;;
78686;SDS011;68002;52.310;6.990;2023-07-13T10:07:30;12.15;;;6.10;;
78686;SDS011;68002;52.310;6.990;2023-07-13T10:09:57;13.40;;;6.78;;
78686;SDS011;68002;52.310;6.990;2023-07-13T10:12:25;13.55;;;6.53;;
78686;SDS011;68002;52.310;6.990;2023-07-13T10:14:54;12.30;;;6.47;;
78686;SDS011;68002;52.310;6.990;2023-07-13T10:17:25;12.23;;;6.75;;
78686;SDS011;68002;52.310;6.990;2023-07-13T10:19:57;10.70;;;5.90;;
78686;SDS011;68002;52.310;6.990;2023-07-13T10:25:16;13.13;;;5.75;;
78686;SDS011;68002;52.310;6.990;2023-07-13T10:27:46;11.90;;;5.80;;
78686;SDS011;68002;52.310;6.990;2023-07-13T10:30:19;12.57;;;7.03;;
78686;SDS011;68002;52.310;6.990;2023-07-13T10:32:48;10.88;;;5.70;;
78686;SDS011;68002;52.310;6.990;2023-07-13T10:35:15;15.18;;;6.03;;
78686;SDS011;68002;52.310;6.990;2023-07-13T10:37:47;12.32;;;6.65;;
78686;SDS011;68002;52.310;6.990;2023-07-13T10:40:19;11.23;;;5.30;;
78686;SDS011;68002;52.310;6.990;2023-07-13T10:42:50;11.15;;;5.95;;
78686;SDS011;68002;52.310;6.990;2023-07-13T10:45:20;11.88;;;5.80;;
78686;SDS011;68002;52.310;6.990;2023-07-13T10:47:48;13.55;;;6.97;;
78686;SDS011;68002;52.310;6.990;2023-07-13T10:50:25;11.18;;;5.13;;
78686;SDS011;68002;52.310;6.990;2023-07-13T10:52:56;8.73;;;5.55;;
78686;SDS011;68002;52.310;6.990;2023-07-13T10:58:32;11.73;;;5.40;;
78686;SDS011;68002;52.310;6.990;2023-07-13T11:06:30;8.70;;;4.80;;
78686;SDS011;68002;52.310;6.990;2023-07-13T11:11:46;12.95;;;6.60;;
78686;SDS011;68002;52.310;6.990;2023-07-13T11:16:55;9.80;;;4.78;;
78686;SDS011;68002;52.310;6.990;2023-07-13T11:24:47;10.18;;;5.05;;
78686;SDS011;68002;52.310;6.990;2023-07-13T11:30:08;9.85;;;5.38;;
78686;SDS011;68002;52.310;6.990;2023-07-13T11:32:45;9.07;;;4.78;;
78686;SDS011;68002;52.310;6.990;2023-07-13T11:35:24;9.00;;;5.70;;
78686;SDS011;68002;52.310;6.990;2023-07-13T11:37:52;11.38;;;5.25;;
78686;SDS011;68002;52.310;6.990;2023-07-13T11:40:18;7.47;;;5.10;;
78686;SDS011;68002;52.310;6.990;2023-07-13T11:42:44;9.55;;;5.32;;
78686;SDS011;68002;52.310;6.990;2023-07-13T11:45:18;9.67;;;5.40;;
78686;SDS011;68002;52.310;6.990;2023-07-13T11:47:45;8.80;;;4.50;;
78686;SDS011;68002;52.310;6.990;2023-07-13T11:50:20;10.32;;;4.85;;
78686;SDS011;68002;52.310;6.990;2023-07-13T11:52:48;8.70;;;5.22;;
78686;SDS011;68002;52.310;6.990;2023-07-13T11:55:16;7.63;;;4.50;;
78686;SDS011;68002;52.310;6.990;2023-07-13T11:57:45;7.05;;;4.50;;
78686;SDS011;68002;52.310;6.990;2023-07-13T12:00:17;6.65;;;4.10;;
78686;SDS011;68002;52.310;6.990;2023-07-13T12:02:47;7.93;;;4.38;;
78686;SDS011;68002;52.310;6.990;2023-07-13T12:05:16;5.85;;;3.35;;
78686;SDS011;68002;52.310;6.990;2023-07-13T12:07:43;7.30;;;4.65;;
78686;SDS011;68002;52.310;6.990;2023-07-13T12:12:37;5.82;;;2.78;;
78686;SDS011;68002;52.310;6.990;2023-07-13T12:15:08;8.20;;;3.47;;
78686;SDS011;68002;52.310;6.990;2023-07-13T12:17:35;8.82;;;4.15;;
78686;SDS011;68002;52.310;6.990;2023-07-13T12:20:03;5.55;;;2.72;;
78686;SDS011;68002;52.310;6.990;2023-07-13T12:22:45;3.80;;;1.48;;
78686;SDS011;68002;52.310;6.990;2023-07-13T12:25:11;1.98;;;1.30;;
78686;SDS011;68002;52.310;6.990;2023-07-13T12:27:37;2.50;;;1.23;;
78686;SDS011;68002;52.310;6.990;2023-07-13T12:30:05;1.83;;;0.93;;
78686;SDS011;68002;52.310;6.990;2023-07-13T12:32:56;1.95;;;0.73;;
78686;SDS011;68002;52.310;6.990;2023-07-13T12:35:26;2.90;;;1.55;;
78686;SDS011;68002;52.310;6.990;2023-07-13T12:37:54;2.25;;;1.00;;
78686;SDS011;68002;52.310;6.990;2023-07-13T12:40:24;1.77;;;0.98;;
78686;SDS011;68002;52.310;6.990;2023-07-13T12:42:53;3.08;;;1.23;;
78686;SDS011;68002;52.310;6.990;2023-07-13T12:45:20;3.20;;;1.17;;
78686;SDS011;68002;52.310;6.990;2023-07-13T12:47:48;2.10;;;1.00;;
78686;SDS011;68002;52.310;6.990;2023-07-13T12:50:17;1.73;;;1.15;;
78686;SDS011;68002;52.310;6.990;2023-07-13T12:52:44;2.60;;;1.73;;
78686;SDS011;68002;52.310;6.990;2023-07-13T12:55:16;2.70;;;1.98;;
78686;SDS011;68002;52.310;6.990;2023-07-13T12:57:57;2.70;;;2.50;;
78686;SDS011;68002;52.310;6.990;2023-07-13T13:00:25;3.78;;;1.98;;
78686;SDS011;68002;52.310;6.990;2023-07-13T13:02:55;5.18;;;2.50;;
78686;SDS011;68002;52.310;6.990;2023-07-13T13:05:22;3.78;;;2.22;;
78686;SDS011;68002;52.310;6.990;2023-07-13T13:07:50;5.07;;;2.00;;
78686;SDS011;68002;52.310;6.990;2023-07-13T13:10:15;4.15;;;2.13;;
78686;SDS011;68002;52.310;6.990;2023-07-13T13:12:41;6.28;;;3.78;;
78686;SDS011;68002;52.310;6.990;2023-07-13T13:15:07;5.45;;;2.75;;
78686;SDS011;68002;52.310;6.990;2023-07-13T13:17:32;3.55;;;1.67;;
78686;SDS011;68002;52.310;6.990;2023-07-13T13:19:58;2.87;;;1.37;;
78686;SDS011;68002;52.310;6.990;2023-07-13T13:22:23;3.30;;;1.33;;
78686;SDS011;68002;52.310;6.990;2023-07-13T13:24:48;2.72;;;1.08;;
78686;SDS011;68002;52.310;6.990;2023-07-13T13:27:15;2.27;;;0.73;;
78686;SDS011;68002;52.310;6.990;2023-07-13T13:29:42;3.53;;;1.25;;
78686;SDS011;68002;52.310;6.990;2023-07-13T13:32:09;2.53;;;0.90;;
78686;SDS011;68002;52.310;6.990;2023-07-13T13:34:37;2.90;;;1.40;;
78686;SDS011;68002;52.310;6.990;2023-07-13T13:37:03;3.73;;;1.97;;
78686;SDS011;68002;52.310;6.990;2023-07-13T13:39:34;3.00;;;1.33;;
78686;SDS011;68002;52.310;6.990;2023-07-13T13:42:01;2.80;;;1.27;;
78686;SDS011;68002;52.310;6.990;2023-07-13T13:44:26;2.97;;;1.03;;
78686;SDS011;68002;52.310;6.990;2023-07-13T13:46:53;3.00;;;1.73;;
78686;SDS011;68002;52.310;6.990;2023-07-13T13:49:24;3.28;;;1.42;;
78686;SDS011;68002;52.310;6.990;2023-07-13T13:51:51;2.10;;;1.25;;
78686;SDS011;68002;52.310;6.990;2023-07-13T13:54:18;2.92;;;1.15;;
78686;SDS011;68002;52.310;6.990;2023-07-13T13:56:46;2.40;;;1.52;;
78686;SDS011;68002;52.310;6.990;2023-07-13T13:59:12;2.42;;;1.25;;
78686;SDS011;68002;52.310;6.990;2023-07-13T14:01:38;2.90;;;1.85;;
78686;SDS011;68002;52.310;6.990;2023-07-13T14:04:04;2.88;;;1.23;;
78686;SDS011;68002;52.310;6.990;2023-07-13T14:06:30;2.63;;;1.48;;
78686;SDS011;68002;52.310;6.990;2023-07-13T14:08:55;4.20;;;1.47;;
78686;SDS011;68002;52.310;6.990;2023-07-13T14:11:21;3.70;;;1.23;;
78686;SDS011;68002;52.310;6.990;2023-07-13T14:13:51;2.47;;;2.10;;
78686;SDS011;68002;52.310;6.990;2023-07-13T14:16:19;3.42;;;1.85;;
78686;SDS011;68002;52.310;6.990;2023-07-13T14:18:47;3.17;;;2.45;;
78686;SDS011;68002;52.310;6.990;2023-07-13T14:21:14;2.83;;;1.38;;
78686;SDS011;68002;52.310;6.990;2023-07-13T14:23:41;3.13;;;1.40;;
78686;SDS011;68002;52.310;6.990;2023-07-13T14:26:13;3.20;;;1.92;;
78686;SDS011;68002;52.310;6.990;2023-07-13T14:28:42;3.58;;;1.88;;
78686;SDS011;68002;52.310;6.990;2023-07-13T14:31:10;3.67;;;1.92;;
78686;SDS011;68002;52.310;6.990;2023-07-13T14:33:37;4.28;;;2.67;;
78686;SDS011;68002;52.310;6.990;2023-07-13T14:36:03;3.72;;;2.28;;
78686;SDS011;68002;52.310;6.990;2023-07-13T14:38:39;4.60;;;3.50;;
78686;SDS011;68002;52.310;6.990;2023-07-13T14:41:07;5.87;;;2.93;;
78686;SDS011;68002;52.310;6.990;2023-07-13T14:43:33;5.10;;;2.92;;
78686;SDS011;68002;52.310;6.990;2023-07-13T14:45:58;4.77;;;3.20;;
78686;SDS011;68002;52.310;6.990;2023-07-13T14:48:23;7.20;;;4.00;;
78686;SDS011;68002;52.310;6.990;2023-07-13T14:50:56;4.50;;;2.50;;
78686;SDS011;68002;52.310;6.990;2023-07-13T14:53:22;5.18;;;3.33;;
78686;SDS011;68002;52.310;6.990;2023-07-13T14:55:49;4.80;;;4.03;;
78686;SDS011;68002;52.310;6.990;2023-07-13T14:58:14;6.87;;;3.77;;
78686;SDS011;68002;52.310;6.990;2023-07-13T15:00:41;5.00;;;4.00;;
78686;SDS011;68002;52.310;6.990;2023-07-13T15:03:08;4.55;;;3.10;;
78686;SDS011;68002;52.310;6.990;2023-07-13T15:05:44;4.32;;;2.85;;
78686;SDS011;68002;52.310;6.990;2023-07-13T15:08:10;5.22;;;2.70;;
78686;SDS011;68002;52.310;6.990;2023-07-13T15:10:36;4.13;;;2.72;;
78686;SDS011;68002;52.310;6.990;2023-07-13T15:13:12;4.60;;;3.08;;
78686;SDS011;68002;52.310;6.990;2023-07-13T15:15:42;6.35;;;3.05;;
78686;SDS011;68002;52.310;6.990;2023-07-13T15:18:17;5.50;;;3.47;;
78686;SDS011;68002;52.310;6.990;2023-07-13T15:20:45;6.90;;;4.40;;
78686;SDS011;68002;52.310;6.990;2023-07-13T15:23:13;4.32;;;2.58;;
78686;SDS011;68002;52.310;6.990;2023-07-13T15:25:40;4.53;;;2.67;;
78686;SDS011;68002;52.310;6.990;2023-07-13T15:28:06;4.13;;;3.72;;
78686;SDS011;68002;52.310;6.990;2023-07-13T15:30:34;4.83;;;3.37;;